DLH4Y EBBR-EDDF
Flight info
| Callsign | DLH4Y |
|---|---|
| Flight time | 0h 35m |
| Altitude | 23000 |
| Route | SPI T180 NIVNU T847 IMCOM IMCOM1D |
| Aircraft | A359/H-SDE2E3GHIJ1J3J4J5LM1ORWXY/LB1D1 |
Departure
| Time | 2026-05-01 14:23 |
|---|---|
| Airport | Brussels Airport (EBBR) |
Arrival
| Time | 2026-05-01 14:58 |
|---|---|
| Airport | Frankfurt Main Airport (EDDF) |
| Time | Latitude | Longitude | Altitude | Speed | Heading |
|---|---|---|---|---|---|
| 2026-05-01 13:49 | 50.90046 | 4.49109 | 137 ft | 0 kts | 335° |
| 2026-05-01 13:52 | 50.90067 | 4.49094 | 137 ft | 0 kts | 335° |
| 2026-05-01 13:52 | 50.90047 | 4.49108 | 137 ft | 0 kts | 335° |
| 2026-05-01 14:15 | 50.90034 | 4.49118 | 137 ft | 4 kts | 335° |
| 2026-05-01 14:16 | 50.90009 | 4.49136 | 139 ft | 4 kts | 335° |
| 2026-05-01 14:16 | 50.89987 | 4.49152 | 140 ft | 4 kts | 338° |
| 2026-05-01 14:16 | 50.89965 | 4.49157 | 141 ft | 4 kts | 34° |
| 2026-05-01 14:16 | 50.89949 | 4.49126 | 142 ft | 4 kts | 66° |
| 2026-05-01 14:17 | 50.89943 | 4.49105 | 142 ft | 1 kts | 65° |
| 2026-05-01 14:17 | 50.89943 | 4.49102 | 142 ft | 0 kts | 65° |
| 2026-05-01 14:19 | 50.89943 | 4.49103 | 142 ft | 0 kts | 65° |
| 2026-05-01 14:19 | 50.89947 | 4.49118 | 142 ft | 4 kts | 65° |
| 2026-05-01 14:19 | 50.89974 | 4.49232 | 140 ft | 17 kts | 71° |
| 2026-05-01 14:20 | 50.90052 | 4.49427 | 137 ft | 22 kts | 26° |
| 2026-05-01 14:20 | 50.90403 | 4.49572 | 131 ft | 30 kts | 14° |
| 2026-05-01 14:20 | 50.90608 | 4.49656 | 125 ft | 27 kts | 14° |
| 2026-05-01 14:21 | 50.90798 | 4.49732 | 128 ft | 29 kts | 15° |
| 2026-05-01 14:21 | 50.90867 | 4.49755 | 128 ft | 1 kts | 354° |
| 2026-05-01 14:21 | 50.90913 | 4.49717 | 125 ft | 15 kts | 329° |
| 2026-05-01 14:22 | 50.90985 | 4.49374 | 122 ft | 19 kts | 261° |
| 2026-05-01 14:22 | 50.90969 | 4.49300 | 121 ft | 0 kts | 246° |
| 2026-05-01 14:22 | 50.90957 | 4.49257 | 122 ft | 20 kts | 246° |
| 2026-05-01 14:22 | 50.90778 | 4.48634 | 122 ft | 103 kts | 245° |
| 2026-05-01 14:23 | 50.90376 | 4.47254 | 135 ft | 170 kts | 242° |
| 2026-05-01 14:23 | 50.89831 | 4.45543 | 934 ft | 171 kts | 240° |
| 2026-05-01 14:23 | 50.88953 | 4.44313 | 1657 ft | 180 kts | 198° |
| 2026-05-01 14:23 | 50.87699 | 4.44530 | 2186 ft | 196 kts | 148° |
| 2026-05-01 14:24 | 50.86927 | 4.46385 | 2775 ft | 220 kts | 103° |
| 2026-05-01 14:24 | 50.86718 | 4.48911 | 3376 ft | 242 kts | 95° |
| 2026-05-01 14:24 | 50.86362 | 4.51600 | 3997 ft | 256 kts | 113° |
| 2026-05-01 14:24 | 50.85488 | 4.54051 | 4904 ft | 261 kts | 125° |
| 2026-05-01 14:25 | 50.84467 | 4.56479 | 5833 ft | 268 kts | 125° |
| 2026-05-01 14:25 | 50.83440 | 4.58961 | 6858 ft | 271 kts | 124° |
| 2026-05-01 14:25 | 50.82420 | 4.61480 | 7895 ft | 275 kts | 124° |
| 2026-05-01 14:25 | 50.81364 | 4.64111 | 8675 ft | 292 kts | 124° |
| 2026-05-01 14:26 | 50.80247 | 4.66917 | 9338 ft | 311 kts | 124° |
| 2026-05-01 14:26 | 50.78300 | 4.73371 | 10608 ft | 342 kts | 110° |
| 2026-05-01 14:26 | 50.77533 | 4.76930 | 11624 ft | 342 kts | 114° |
| 2026-05-01 14:27 | 50.76566 | 4.80370 | 12664 ft | 343 kts | 117° |
| 2026-05-01 14:27 | 50.75541 | 4.83764 | 13740 ft | 344 kts | 118° |
| 2026-05-01 14:27 | 50.74502 | 4.87189 | 14653 ft | 347 kts | 118° |
| 2026-05-01 14:28 | 50.72390 | 4.94157 | 16212 ft | 356 kts | 117° |
| 2026-05-01 14:28 | 50.71434 | 4.97786 | 16830 ft | 361 kts | 110° |
| 2026-05-01 14:28 | 50.70548 | 5.01508 | 17439 ft | 364 kts | 117° |
| 2026-05-01 14:28 | 50.69257 | 5.04948 | 17981 ft | 366 kts | 126° |
| 2026-05-01 14:29 | 50.67783 | 5.08231 | 18215 ft | 368 kts | 127° |
| 2026-05-01 14:29 | 50.66564 | 5.11844 | 18244 ft | 386 kts | 114° |
| 2026-05-01 14:30 | 50.63243 | 5.23934 | 18238 ft | 404 kts | 116° |
| 2026-05-01 14:30 | 50.62054 | 5.27940 | 18234 ft | 404 kts | 117° |
| 2026-05-01 14:30 | 50.60848 | 5.31938 | 18233 ft | 404 kts | 117° |
| 2026-05-01 14:31 | 50.58396 | 5.39961 | 18999 ft | 402 kts | 117° |
| 2026-05-01 14:31 | 50.57216 | 5.43810 | 19669 ft | 383 kts | 117° |
| 2026-05-01 14:31 | 50.56059 | 5.47560 | 20405 ft | 380 kts | 117° |
| 2026-05-01 14:31 | 50.54900 | 5.51306 | 21177 ft | 383 kts | 117° |
| 2026-05-01 14:32 | 50.53725 | 5.55098 | 21869 ft | 388 kts | 117° |
| 2026-05-01 14:32 | 50.52941 | 5.57625 | 22344 ft | 390 kts | 116° |
| 2026-05-01 14:32 | 50.51412 | 5.62855 | 23091 ft | 397 kts | 111° |
| 2026-05-01 14:32 | 50.50495 | 5.66927 | 23234 ft | 393 kts | 108° |
| 2026-05-01 14:33 | 50.49706 | 5.71017 | 23238 ft | 389 kts | 107° |
| 2026-05-01 14:33 | 50.48975 | 5.75112 | 23238 ft | 390 kts | 106° |
| 2026-05-01 14:33 | 50.48497 | 5.77831 | 23240 ft | 391 kts | 106° |
| 2026-05-01 14:33 | 50.47768 | 5.81953 | 23248 ft | 393 kts | 106° |
| 2026-05-01 14:34 | 50.47022 | 5.86086 | 23239 ft | 394 kts | 107° |
| 2026-05-01 14:34 | 50.46261 | 5.90216 | 23240 ft | 395 kts | 107° |
| 2026-05-01 14:34 | 50.45488 | 5.94354 | 23234 ft | 395 kts | 107° |
| 2026-05-01 14:34 | 50.44709 | 5.98480 | 23240 ft | 393 kts | 107° |
| 2026-05-01 14:35 | 50.43928 | 6.02592 | 23245 ft | 394 kts | 107° |
| 2026-05-01 14:35 | 50.43141 | 6.06723 | 23242 ft | 395 kts | 107° |
| 2026-05-01 14:35 | 50.42354 | 6.10845 | 23249 ft | 395 kts | 107° |
| 2026-05-01 14:35 | 50.41567 | 6.14966 | 23243 ft | 394 kts | 107° |
| 2026-05-01 14:36 | 50.40780 | 6.19080 | 23242 ft | 395 kts | 107° |
| 2026-05-01 14:36 | 50.39989 | 6.23212 | 23242 ft | 396 kts | 107° |
| 2026-05-01 14:36 | 50.39198 | 6.27331 | 23245 ft | 395 kts | 107° |
| 2026-05-01 14:36 | 50.38406 | 6.31445 | 23242 ft | 394 kts | 107° |
| 2026-05-01 14:37 | 50.37612 | 6.35561 | 23242 ft | 396 kts | 107° |
| 2026-05-01 14:37 | 50.36840 | 6.39689 | 23239 ft | 396 kts | 104° |
| 2026-05-01 14:37 | 50.36346 | 6.43931 | 23239 ft | 394 kts | 98° |
| 2026-05-01 14:37 | 50.35995 | 6.48194 | 23249 ft | 395 kts | 97° |
| 2026-05-01 14:38 | 50.35707 | 6.52466 | 23249 ft | 395 kts | 96° |
| 2026-05-01 14:38 | 50.35445 | 6.56733 | 23251 ft | 393 kts | 96° |
| 2026-05-01 14:38 | 50.35188 | 6.60995 | 23254 ft | 394 kts | 96° |
| 2026-05-01 14:38 | 50.34927 | 6.65271 | 23263 ft | 394 kts | 96° |
| 2026-05-01 14:39 | 50.34661 | 6.69540 | 23266 ft | 393 kts | 96° |
| 2026-05-01 14:39 | 50.34391 | 6.73793 | 23270 ft | 394 kts | 96° |
| 2026-05-01 14:39 | 50.34120 | 6.78072 | 23281 ft | 394 kts | 96° |
| 2026-05-01 14:39 | 50.33854 | 6.82339 | 23277 ft | 393 kts | 96° |
| 2026-05-01 14:40 | 50.33368 | 6.86542 | 23285 ft | 393 kts | 107° |
| 2026-05-01 14:40 | 50.32369 | 6.90524 | 23149 ft | 393 kts | 114° |
| 2026-05-01 14:40 | 50.31216 | 6.94401 | 22642 ft | 392 kts | 115° |
| 2026-05-01 14:40 | 50.30053 | 6.98244 | 22064 ft | 389 kts | 115° |
| 2026-05-01 14:41 | 50.28904 | 7.02050 | 21533 ft | 386 kts | 115° |
| 2026-05-01 14:41 | 50.27765 | 7.05839 | 21017 ft | 382 kts | 116° |
| 2026-05-01 14:41 | 50.26644 | 7.09586 | 20549 ft | 379 kts | 116° |
| 2026-05-01 14:41 | 50.25548 | 7.13242 | 20099 ft | 375 kts | 116° |
| 2026-05-01 14:42 | 50.24431 | 7.16965 | 19663 ft | 373 kts | 116° |
| 2026-05-01 14:42 | 50.23331 | 7.20624 | 19230 ft | 372 kts | 116° |
| 2026-05-01 14:42 | 50.22234 | 7.24273 | 18813 ft | 370 kts | 116° |
| 2026-05-01 14:42 | 50.21145 | 7.27893 | 18357 ft | 367 kts | 116° |
| 2026-05-01 14:43 | 50.20066 | 7.31472 | 17886 ft | 363 kts | 116° |
| 2026-05-01 14:43 | 50.19029 | 7.34998 | 17423 ft | 361 kts | 114° |
| 2026-05-01 14:43 | 50.18154 | 7.38658 | 16956 ft | 360 kts | 110° |
| 2026-05-01 14:43 | 50.17325 | 7.42319 | 16501 ft | 356 kts | 110° |
| 2026-05-01 14:44 | 50.16494 | 7.45927 | 16063 ft | 352 kts | 111° |
| 2026-05-01 14:44 | 50.14817 | 7.53050 | 15168 ft | 348 kts | 111° |
| 2026-05-01 14:44 | 50.13985 | 7.56538 | 14748 ft | 346 kts | 111° |
| 2026-05-01 14:45 | 50.13150 | 7.60026 | 14339 ft | 342 kts | 111° |
| 2026-05-01 14:45 | 50.11478 | 7.66981 | 13453 ft | 339 kts | 111° |
| 2026-05-01 14:45 | 50.10678 | 7.70381 | 13032 ft | 338 kts | 110° |
| 2026-05-01 14:46 | 50.09998 | 7.73871 | 12597 ft | 335 kts | 108° |
| 2026-05-01 14:46 | 50.08705 | 7.80789 | 11655 ft | 329 kts | 108° |
| 2026-05-01 14:46 | 50.08232 | 7.84243 | 11191 ft | 325 kts | 98° |
| 2026-05-01 14:47 | 50.07841 | 7.87668 | 10738 ft | 318 kts | 107° |
| 2026-05-01 14:47 | 50.07138 | 7.90901 | 10287 ft | 313 kts | 113° |
| 2026-05-01 14:47 | 50.06301 | 7.93987 | 9786 ft | 306 kts | 121° |
| 2026-05-01 14:48 | 50.03059 | 7.97628 | 8945 ft | 288 kts | 170° |
| 2026-05-01 14:48 | 50.01097 | 7.97546 | 8635 ft | 281 kts | 189° |
| 2026-05-01 14:48 | 49.97348 | 7.96607 | 8069 ft | 264 kts | 176° |
| 2026-05-01 14:49 | 49.93946 | 7.97897 | 7601 ft | 248 kts | 146° |
| 2026-05-01 14:49 | 49.91910 | 8.01969 | 7147 ft | 238 kts | 122° |
| 2026-05-01 14:50 | 49.91558 | 8.04297 | 6958 ft | 238 kts | 88° |
| 2026-05-01 14:50 | 49.93501 | 8.09390 | 6372 ft | 235 kts | 58° |
| 2026-05-01 14:51 | 49.94374 | 8.11506 | 6068 ft | 229 kts | 65° |
| 2026-05-01 14:51 | 49.95543 | 8.15784 | 5480 ft | 205 kts | 74° |
| 2026-05-01 14:52 | 49.96470 | 8.19700 | 4735 ft | 180 kts | 75° |
| 2026-05-01 14:52 | 49.96900 | 8.21464 | 4313 ft | 173 kts | 75° |
| 2026-05-01 14:52 | 49.97745 | 8.24884 | 3523 ft | 163 kts | 72° |
| 2026-05-01 14:53 | 49.98141 | 8.26482 | 3255 ft | 155 kts | 73° |
| 2026-05-01 14:53 | 49.98508 | 8.27990 | 3014 ft | 142 kts | 73° |
| 2026-05-01 14:53 | 49.98834 | 8.29339 | 2987 ft | 127 kts | 75° |
| 2026-05-01 14:53 | 49.99135 | 8.30612 | 2993 ft | 126 kts | 75° |
| 2026-05-01 14:54 | 49.99439 | 8.31916 | 2859 ft | 130 kts | 73° |
| 2026-05-01 14:54 | 49.99756 | 8.33227 | 2674 ft | 128 kts | 75° |
| 2026-05-01 14:54 | 50.00063 | 8.34515 | 2497 ft | 127 kts | 73° |
| 2026-05-01 14:54 | 50.00372 | 8.35794 | 2313 ft | 126 kts | 75° |
| 2026-05-01 14:55 | 50.00679 | 8.37082 | 2134 ft | 127 kts | 75° |
| 2026-05-01 14:55 | 50.00986 | 8.38361 | 1970 ft | 126 kts | 75° |
| 2026-05-01 14:55 | 50.01294 | 8.39651 | 1757 ft | 127 kts | 76° |
| 2026-05-01 14:55 | 50.01614 | 8.40924 | 1561 ft | 126 kts | 73° |
| 2026-05-01 14:56 | 50.01945 | 8.42187 | 1424 ft | 125 kts | 73° |
| 2026-05-01 14:56 | 50.02229 | 8.43468 | 1265 ft | 126 kts | 74° |
| 2026-05-01 14:56 | 50.02512 | 8.44741 | 1035 ft | 124 kts | 72° |
| 2026-05-01 14:56 | 50.02811 | 8.45984 | 887 ft | 124 kts | 72° |
| 2026-05-01 14:57 | 50.03108 | 8.47225 | 682 ft | 121 kts | 71° |
| 2026-05-01 14:57 | 50.03698 | 8.49659 | 364 ft | 122 kts | 71° |
| 2026-05-01 14:57 | 50.03972 | 8.50801 | 328 ft | 106 kts | 72° |
| 2026-05-01 14:58 | 50.04179 | 8.51686 | 353 ft | 69 kts | 70° |
| 2026-05-01 14:58 | 50.04320 | 8.52276 | 358 ft | 55 kts | 69° |
| 2026-05-01 14:58 | 50.04392 | 8.52664 | 360 ft | 32 kts | 85° |
| 2026-05-01 14:58 | 50.04370 | 8.53000 | 366 ft | 29 kts | 96° |
| 2026-05-01 14:59 | 50.04352 | 8.53290 | 371 ft | 23 kts | 82° |
| 2026-05-01 14:59 | 50.04392 | 8.53508 | 381 ft | 19 kts | 79° |
| 2026-05-01 14:59 | 50.04410 | 8.53734 | 382 ft | 25 kts | 84° |
| 2026-05-01 14:59 | 50.04429 | 8.54019 | 382 ft | 27 kts | 84° |
| 2026-05-01 15:00 | 50.04444 | 8.54535 | 377 ft | 21 kts | 107° |
| 2026-05-01 15:00 | 50.04358 | 8.54730 | 374 ft | 23 kts | 143° |
| 2026-05-01 15:00 | 50.04196 | 8.54837 | 360 ft | 28 kts | 160° |
| 2026-05-01 15:01 | 50.04049 | 8.54921 | 365 ft | 13 kts | 159° |
| 2026-05-01 15:01 | 50.04016 | 8.54990 | 367 ft | 6 kts | 90° |
| 2026-05-01 15:01 | 50.04043 | 8.55120 | 361 ft | 23 kts | 70° |
| 2026-05-01 15:01 | 50.04111 | 8.55406 | 367 ft | 30 kts | 69° |
| 2026-05-01 15:02 | 50.04175 | 8.55671 | 367 ft | 14 kts | 69° |
| 2026-05-01 15:02 | 50.04195 | 8.55755 | 366 ft | 8 kts | 69° |
| 2026-05-01 15:02 | 50.04199 | 8.55769 | 365 ft | 0 kts | 69° |
| 2026-05-01 15:02 | 50.04200 | 8.55774 | 364 ft | 2 kts | 69° |
| 2026-05-01 15:03 | 50.04211 | 8.55820 | 364 ft | 11 kts | 70° |
| 2026-05-01 15:03 | 50.04262 | 8.55956 | 364 ft | 13 kts | 20° |
| 2026-05-01 15:03 | 50.04354 | 8.55924 | 368 ft | 15 kts | 339° |
| 2026-05-01 15:03 | 50.04449 | 8.55920 | 364 ft | 14 kts | 15° |
| 2026-05-01 15:04 | 50.04550 | 8.55978 | 369 ft | 16 kts | 41° |
| 2026-05-01 15:04 | 50.04597 | 8.56143 | 366 ft | 12 kts | 62° |
| 2026-05-01 15:04 | 50.04657 | 8.56181 | 366 ft | 9 kts | 349° |
| 2026-05-01 15:04 | 50.04691 | 8.56165 | 371 ft | 1 kts | 340° |
| 2026-05-01 15:05 | 50.04700 | 8.56160 | 368 ft | 0 kts | 340° |